Time;durP1;ratioP1;P1;durP2;ratioP2;P2;SDS_P1;SDS_P2;PMS_P1;PMS_P2;Temp;Humidity;BMP_temperature;BMP_pressure;BME280_temperature;BME280_humidity;BME280_pressure;Samples;Min_cycle;Max_cycle;Signal;HPM_P1;HPM_P2
2022/08/05 00:02:08;;;;;;;4.43;3.40;;;;;;;;;;5073484;28;20443;-63
2022/08/05 00:04:35;;;;;;;8.63;4.07;;;;;;;;;;5073302;28;20447;-63
2022/08/05 00:07:04;;;;;;;4.13;3.73;;;;;;;;;;5073247;28;20768;-62
2022/08/05 00:09:31;;;;;;;8.53;4.33;;;;;;;;;;5073469;28;20482;-63
2022/08/05 00:11:58;;;;;;;4.20;3.80;;;;;;;;;;5072772;28;20533;-63
2022/08/05 00:14:25;;;;;;;7.57;3.63;;;;;;;;;;5072865;28;20443;-63
2022/08/05 00:16:52;;;;;;;6.07;3.57;;;;;;;;;;5073186;28;20476;-64
2022/08/05 00:19:19;;;;;;;5.80;3.60;;;;;;;;;;5073104;28;20446;-63
2022/08/05 00:21:47;;;;;;;5.80;3.53;;;;;;;;;;5072647;28;20449;-64
2022/08/05 00:24:15;;;;;;;5.60;3.50;;;;;;;;;;5073550;28;20805;-63
2022/08/05 00:26:42;;;;;;;6.57;3.60;;;;;;;;;;5074742;28;20840;-63
2022/08/05 00:29:10;;;;;;;4.53;3.80;;;;;;;;;;5076406;28;20477;-63
2022/08/05 00:31:37;;;;;;;5.23;4.00;;;;;;;;;;5076487;28;20535;-63
2022/08/05 00:34:04;;;;;;;6.30;4.03;;;;;;;;;;5076668;28;20455;-63
2022/08/05 00:36:32;;;;;;;4.40;3.67;;;;;;;;;;5076464;28;20495;-62
2022/08/05 00:38:59;;;;;;;6.93;4.27;;;;;;;;;;5076602;28;20443;-63
2022/08/05 00:41:31;;;;;;;5.50;4.30;;;;;;;;;;5076579;28;20533;-63
2022/08/05 00:43:58;;;;;;;8.10;4.30;;;;;;;;;;5076482;28;20521;-63
2022/08/05 00:46:25;;;;;;;5.63;4.67;;;;;;;;;;5076276;28;20971;-63
2022/08/05 00:48:53;;;;;;;9.00;4.87;;;;;;;;;;5076352;28;20451;-63
2022/08/05 00:51:20;;;;;;;8.40;4.57;;;;;;;;;;5076573;28;20434;-63
2022/08/05 00:53:47;;;;;;;4.87;4.37;;;;;;;;;;5076415;28;20451;-63
2022/08/05 00:56:16;;;;;;;6.73;4.70;;;;;;;;;;5076416;28;20438;-63
2022/08/05 00:58:45;;;;;;;6.13;4.13;;;;;;;;;;5076490;28;20437;-63
2022/08/05 01:01:14;;;;;;;4.93;4.00;;;;;;;;;;5076831;28;20530;-63
2022/08/05 01:03:41;;;;;;;4.73;4.33;;;;;;;;;;5075878;28;20498;-63
2022/08/05 01:06:09;;;;;;;5.33;4.70;;;;;;;;;;5076179;28;20479;-63
2022/08/05 01:08:36;;;;;;;7.00;4.30;;;;;;;;;;5076064;28;20547;-63
2022/08/05 01:11:07;;;;;;;5.83;4.13;;;;;;;;;;5076660;28;20912;-63
2022/08/05 01:13:36;;;;;;;17.23;5.40;;;;;;;;;;5076058;28;20429;-63
2022/08/05 01:16:07;;;;;;;7.23;5.00;;;;;;;;;;5076328;28;20819;-63
2022/08/05 01:18:36;;;;;;;5.80;4.87;;;;;;;;;;5075952;28;20847;-63
2022/08/05 01:21:06;;;;;;;7.20;5.20;;;;;;;;;;5075651;28;20454;-63
2022/08/05 01:23:42;;;;;;;8.90;4.80;;;;;;;;;;5075402;28;20552;-63
2022/08/05 01:26:18;;;;;;;13.87;4.70;;;;;;;;;;5075975;28;20426;-63
2022/08/05 01:28:49;;;;;;;9.43;5.80;;;;;;;;;;5075958;28;20437;-63
2022/08/05 01:31:18;;;;;;;6.83;5.50;;;;;;;;;;5075898;28;20813;-63
2022/08/05 01:33:49;;;;;;;8.73;5.73;;;;;;;;;;5075909;28;20449;-63
2022/08/05 01:36:17;;;;;;;7.73;6.57;;;;;;;;;;5075791;28;20927;-63
2022/08/05 01:38:46;;;;;;;8.97;6.13;;;;;;;;;;5074703;28;20552;-63
2022/08/05 01:41:14;;;;;;;7.07;6.17;;;;;;;;;;5076387;28;20443;-63
2022/08/05 01:43:42;;;;;;;11.97;7.37;;;;;;;;;;5075151;28;20449;-63
2022/08/05 01:46:11;;;;;;;8.70;6.33;;;;;;;;;;5075548;28;20493;-63
2022/08/05 01:48:39;;;;;;;8.30;7.50;;;;;;;;;;5075633;28;20437;-63
2022/08/05 01:51:07;;;;;;;11.57;8.93;;;;;;;;;;5075315;28;20834;-63
2022/08/05 01:53:35;;;;;;;10.50;8.37;;;;;;;;;;5075572;28;20477;-63
2022/08/05 01:56:03;;;;;;;16.00;7.30;;;;;;;;;;5075303;28;20538;-63
2022/08/05 01:58:31;;;;;;;11.40;8.10;;;;;;;;;;5075807;28;20529;-63
2022/08/05 02:00:59;;;;;;;9.23;8.33;;;;;;;;;;5074913;28;20488;-63
2022/08/05 02:03:29;;;;;;;13.97;9.13;;;;;;;;;;5074748;28;20444;-63
2022/08/05 02:05:56;;;;;;;11.40;8.50;;;;;;;;;;5074796;28;20450;-63
2022/08/05 02:08:24;;;;;;;11.80;8.50;;;;;;;;;;5074986;28;20803;-63
2022/08/05 02:10:53;;;;;;;9.47;8.47;;;;;;;;;;5074780;28;20482;-63
2022/08/05 02:13:26;;;;;;;12.40;9.03;;;;;;;;;;5074540;28;20537;-63
2022/08/05 02:15:56;;;;;;;12.40;9.10;;;;;;;;;;5074994;28;20487;-63
2022/08/05 02:18:25;;;;;;;10.80;9.70;;;;;;;;;;5075012;28;20431;-64
2022/08/05 02:20:54;;;;;;;10.80;9.23;;;;;;;;;;5074439;28;20452;-63
2022/08/05 02:23:24;;;;;;;12.30;9.03;;;;;;;;;;5075119;28;20445;-64
2022/08/05 02:25:52;;;;;;;14.67;9.07;;;;;;;;;;5074394;28;20531;-64
2022/08/05 02:28:24;;;;;;;14.20;9.50;;;;;;;;;;5074722;28;20483;-64
2022/08/05 02:30:55;;;;;;;15.23;11.17;;;;;;;;;;5074602;28;20466;-63
2022/08/05 02:33:23;;;;;;;14.67;9.60;;;;;;;;;;5074259;28;20511;-63
2022/08/05 02:35:51;;;;;;;12.40;11.10;;;;;;;;;;5074509;28;20523;-63
2022/08/05 02:38:20;;;;;;;12.20;9.70;;;;;;;;;;5074408;28;20441;-63
2022/08/05 02:40:47;;;;;;;14.90;10.73;;;;;;;;;;5074339;28;20487;-63
2022/08/05 02:43:15;;;;;;;22.40;11.07;;;;;;;;;;5074365;28;20442;-63
2022/08/05 02:45:43;;;;;;;15.47;11.67;;;;;;;;;;5074297;28;20434;-64
2022/08/05 02:48:11;;;;;;;11.60;10.40;;;;;;;;;;5074793;28;20440;-63
2022/08/05 02:50:40;;;;;;;12.30;10.57;;;;;;;;;;5073491;28;21017;-63
2022/08/05 02:53:08;;;;;;;16.47;10.40;;;;;;;;;;5074154;28;20449;-63
2022/08/05 02:55:37;;;;;;;12.00;9.83;;;;;;;;;;5073688;28;20443;-63
2022/08/05 02:58:04;;;;;;;12.17;11.03;;;;;;;;;;5074126;28;20544;-63
2022/08/05 03:00:31;;;;;;;15.07;11.57;;;;;;;;;;5073960;28;20450;-63
2022/08/05 03:02:59;;;;;;;18.40;11.20;;;;;;;;;;5074026;28;20520;-63
2022/08/05 03:05:26;;;;;;;14.70;10.60;;;;;;;;;;5073861;28;20528;-65
2022/08/05 03:07:54;;;;;;;11.70;10.17;;;;;;;;;;5073873;28;20437;-63
2022/08/05 03:10:23;;;;;;;15.87;10.83;;;;;;;;;;5073433;28;21081;-63
2022/08/05 03:12:52;;;;;;;16.47;11.50;;;;;;;;;;5074321;28;20542;-63
2022/08/05 03:15:20;;;;;;;16.53;11.03;;;;;;;;;;5073437;28;20441;-63
2022/08/05 03:17:48;;;;;;;13.63;11.60;;;;;;;;;;5074294;28;20977;-64
2022/08/05 03:20:15;;;;;;;13.23;11.40;;;;;;;;;;5073337;28;20535;-63
2022/08/05 03:22:42;;;;;;;18.70;12.00;;;;;;;;;;5073349;28;20453;-64
2022/08/05 03:25:10;;;;;;;13.00;10.60;;;;;;;;;;5073923;28;20536;-63
2022/08/05 03:27:37;;;;;;;14.90;12.67;;;;;;;;;;5073392;28;20535;-62
2022/08/05 03:30:06;;;;;;;17.03;10.60;;;;;;;;;;5073165;28;21064;-62
2022/08/05 03:32:33;;;;;;;14.87;11.50;;;;;;;;;;5073396;28;20540;-63
2022/08/05 03:35:01;;;;;;;17.47;10.47;;;;;;;;;;5073509;28;20441;-64
2022/08/05 03:37:28;;;;;;;14.43;11.67;;;;;;;;;;5073265;28;20433;-63
2022/08/05 03:39:56;;;;;;;13.13;10.90;;;;;;;;;;5073492;28;20532;-63
2022/08/05 03:42:24;;;;;;;12.47;9.90;;;;;;;;;;5073535;28;20437;-63
2022/08/05 03:44:51;;;;;;;13.30;10.20;;;;;;;;;;5073095;28;20483;-63
2022/08/05 03:47:19;;;;;;;14.40;11.80;;;;;;;;;;5073467;28;20447;-63
2022/08/05 03:49:46;;;;;;;12.10;10.83;;;;;;;;;;5073368;28;20540;-64
2022/08/05 03:52:18;;;;;;;14.63;12.03;;;;;;;;;;5073939;28;20445;-64
2022/08/05 03:54:49;;;;;;;14.30;11.40;;;;;;;;;;5073812;28;20879;-64
2022/08/05 03:57:19;;;;;;;17.60;11.53;;;;;;;;;;5073211;28;20429;-64
2022/08/05 03:59:49;;;;;;;16.13;10.80;;;;;;;;;;5072491;28;20519;-63
2022/08/05 04:02:17;;;;;;;17.10;13.17;;;;;;;;;;5074861;28;20440;-64
2022/08/05 04:04:47;;;;;;;13.57;11.00;;;;;;;;;;5076738;28;20495;-64
2022/08/05 04:07:15;;;;;;;14.70;11.57;;;;;;;;;;5077044;28;20521;-64
2022/08/05 04:09:42;;;;;;;14.67;11.93;;;;;;;;;;5076967;28;20452;-64
2022/08/05 04:12:09;;;;;;;15.47;11.50;;;;;;;;;;5076664;28;20557;-64
2022/08/05 04:14:37;;;;;;;16.70;12.57;;;;;;;;;;5077183;28;20521;-64
2022/08/05 04:17:04;;;;;;;14.40;12.63;;;;;;;;;;5076269;28;20476;-64
2022/08/05 04:19:31;;;;;;;18.50;12.53;;;;;;;;;;5077472;28;20436;-63
2022/08/05 04:22:00;;;;;;;18.90;12.20;;;;;;;;;;5076662;28;20458;-64
2022/08/05 04:24:27;;;;;;;19.00;13.77;;;;;;;;;;5077450;28;20464;-63
2022/08/05 04:26:54;;;;;;;21.73;14.40;;;;;;;;;;5076807;28;20945;-64
2022/08/05 04:29:21;;;;;;;16.27;13.50;;;;;;;;;;5076395;28;20448;-64
2022/08/05 04:31:49;;;;;;;18.20;12.70;;;;;;;;;;5076407;28;20479;-63
2022/08/05 04:34:16;;;;;;;16.90;12.90;;;;;;;;;;5076499;28;20523;-63
2022/08/05 04:36:43;;;;;;;19.63;13.90;;;;;;;;;;5076254;28;20444;-63
2022/08/05 04:39:11;;;;;;;26.07;14.30;;;;;;;;;;5076781;28;20447;-63
2022/08/05 04:41:39;;;;;;;21.20;14.10;;;;;;;;;;5076567;28;20472;-63
2022/08/05 04:44:06;;;;;;;25.37;14.27;;;;;;;;;;5076282;28;20548;-63
2022/08/05 04:46:33;;;;;;;24.23;14.27;;;;;;;;;;5076737;28;20532;-64
2022/08/05 04:49:01;;;;;;;17.07;13.47;;;;;;;;;;5076450;28;20506;-64
2022/08/05 04:51:28;;;;;;;21.17;15.13;;;;;;;;;;5076357;28;20567;-64
2022/08/05 04:53:55;;;;;;;20.93;15.00;;;;;;;;;;5076571;28;20453;-64
2022/08/05 04:56:24;;;;;;;22.47;13.33;;;;;;;;;;5075909;28;20440;-63
2022/08/05 04:58:51;;;;;;;19.53;14.60;;;;;;;;;;5076073;28;20471;-63
2022/08/05 05:01:18;;;;;;;22.90;14.40;;;;;;;;;;5076132;28;20453;-64
2022/08/05 05:03:45;;;;;;;20.90;15.33;;;;;;;;;;5075995;28;20447;-63
2022/08/05 05:06:13;;;;;;;19.50;14.63;;;;;;;;;;5076564;28;20444;-63
2022/08/05 05:08:40;;;;;;;21.03;15.40;;;;;;;;;;5076375;28;20448;-64
2022/08/05 05:11:08;;;;;;;20.70;16.33;;;;;;;;;;5076272;28;20486;-64
2022/08/05 05:13:36;;;;;;;28.73;15.80;;;;;;;;;;5076156;28;20527;-69
2022/08/05 05:16:04;;;;;;;16.97;13.87;;;;;;;;;;5075872;28;20500;-64
2022/08/05 05:18:31;;;;;;;18.93;15.00;;;;;;;;;;5076212;28;20443;-64
2022/08/05 05:20:58;;;;;;;22.53;15.70;;;;;;;;;;5075712;28;20535;-64
2022/08/05 05:23:25;;;;;;;16.90;14.20;;;;;;;;;;5075902;28;20536;-64
2022/08/05 05:25:53;;;;;;;18.70;15.07;;;;;;;;;;5075576;28;20451;-64
2022/08/05 05:28:20;;;;;;;22.13;18.33;;;;;;;;;;5075862;28;20449;-64
2022/08/05 05:30:48;;;;;;;18.80;13.50;;;;;;;;;;5075874;28;20483;-65
2022/08/05 05:33:16;;;;;;;16.80;13.70;;;;;;;;;;5075844;28;20476;-64
2022/08/05 05:35:43;;;;;;;21.43;15.63;;;;;;;;;;5075376;28;20523;-64
2022/08/05 05:38:10;;;;;;;19.03;13.97;;;;;;;;;;5075388;28;20565;-64
2022/08/05 05:40:37;;;;;;;23.53;15.47;;;;;;;;;;5076458;28;20480;-64
2022/08/05 05:43:05;;;;;;;15.47;13.97;;;;;;;;;;5075144;28;20519;-64
2022/08/05 05:45:32;;;;;;;18.17;13.80;;;;;;;;;;5075357;28;20922;-64
2022/08/05 05:48:00;;;;;;;16.23;14.30;;;;;;;;;;5075412;28;20536;-64
2022/08/05 05:50:28;;;;;;;23.80;14.07;;;;;;;;;;5075357;28;20539;-64
2022/08/05 05:52:55;;;;;;;16.00;14.33;;;;;;;;;;5075355;28;20571;-64
2022/08/05 05:55:22;;;;;;;19.10;13.90;;;;;;;;;;5075013;28;20524;-65
2022/08/05 05:57:49;;;;;;;23.13;13.67;;;;;;;;;;5074849;28;20441;-64
2022/08/05 06:00:18;;;;;;;17.50;13.90;;;;;;;;;;5074971;28;20448;-64
2022/08/05 06:02:46;;;;;;;17.80;12.33;;;;;;;;;;5075165;28;20452;-64
2022/08/05 06:05:16;;;;;;;16.97;13.07;;;;;;;;;;5074829;28;20442;-64
2022/08/05 06:07:44;;;;;;;20.07;13.13;;;;;;;;;;5074770;28;20517;-64
2022/08/05 06:10:12;;;;;;;17.33;12.83;;;;;;;;;;5075024;28;20868;-64
2022/08/05 06:12:39;;;;;;;13.60;12.20;;;;;;;;;;5074804;28;20567;-64
2022/08/05 06:15:07;;;;;;;15.87;12.00;;;;;;;;;;5075640;28;20539;-64
2022/08/05 06:17:35;;;;;;;14.60;12.50;;;;;;;;;;5074839;28;20556;-64
2022/08/05 06:20:02;;;;;;;13.67;11.73;;;;;;;;;;5074492;28;20952;-64
2022/08/05 06:22:31;;;;;;;15.60;12.13;;;;;;;;;;5074971;28;20536;-64
2022/08/05 06:24:59;;;;;;;18.40;12.07;;;;;;;;;;5074974;28;20452;-64
2022/08/05 06:27:26;;;;;;;14.27;11.87;;;;;;;;;;5074625;28;20443;-64
2022/08/05 06:29:53;;;;;;;14.30;10.17;;;;;;;;;;5074688;28;20447;-64
2022/08/05 06:32:20;;;;;;;15.00;10.80;;;;;;;;;;5074329;28;20563;-64
2022/08/05 06:34:48;;;;;;;15.53;11.40;;;;;;;;;;5075006;28;20464;-64
2022/08/05 06:37:15;;;;;;;16.30;11.63;;;;;;;;;;5074028;28;20535;-64
2022/08/05 06:39:44;;;;;;;14.50;10.80;;;;;;;;;;5074701;28;20494;-64
2022/08/05 06:42:12;;;;;;;11.57;8.83;;;;;;;;;;5073956;28;20449;-65
2022/08/05 06:44:39;;;;;;;12.00;9.20;;;;;;;;;;5074659;28;20456;-64
2022/08/05 06:47:07;;;;;;;13.37;8.67;;;;;;;;;;5074233;28;20495;-64
2022/08/05 06:49:34;;;;;;;10.83;7.87;;;;;;;;;;5074257;28;21021;-64
2022/08/05 06:52:01;;;;;;;14.97;7.23;;;;;;;;;;5074468;28;20472;-64
2022/08/05 06:54:28;;;;;;;9.10;8.10;;;;;;;;;;5074128;28;20452;-64
2022/08/05 06:56:57;;;;;;;13.00;8.00;;;;;;;;;;5074084;28;20468;-64
2022/08/05 06:59:24;;;;;;;14.57;8.83;;;;;;;;;;5074848;28;20472;-64
2022/08/05 07:01:51;;;;;;;13.63;8.87;;;;;;;;;;5073599;28;20528;-65
2022/08/05 07:04:19;;;;;;;13.40;8.53;;;;;;;;;;5074192;28;20437;-64
2022/08/05 07:06:46;;;;;;;8.93;7.70;;;;;;;;;;5074402;28;20872;-64
2022/08/05 07:09:13;;;;;;;13.10;8.80;;;;;;;;;;5073759;28;20532;-64
2022/08/05 07:11:40;;;;;;;7.97;7.07;;;;;;;;;;5073500;28;21005;-65
2022/08/05 07:16:58;;;;;;;9.40;7.40;;;;;;;;;;5073738;28;20531;-64
2022/08/05 07:19:27;;;;;;;12.63;8.00;;;;;;;;;;5073822;28;20440;-64
2022/08/05 07:21:55;;;;;;;9.33;7.70;;;;;;;;;;5073680;28;20532;-64
2022/08/05 07:24:22;;;;;;;10.37;8.50;;;;;;;;;;5073338;28;20903;-64
2022/08/05 07:26:49;;;;;;;13.00;8.37;;;;;;;;;;5073824;28;20529;-64
2022/08/05 07:29:18;;;;;;;14.03;8.53;;;;;;;;;;5073741;28;20527;-64
2022/08/05 07:31:45;;;;;;;11.20;10.10;;;;;;;;;;5073360;28;20563;-64
2022/08/05 07:34:12;;;;;;;14.10;10.33;;;;;;;;;;5073714;28;20528;-64
2022/08/05 07:36:40;;;;;;;17.60;11.37;;;;;;;;;;5072647;28;20528;-64
2022/08/05 07:39:08;;;;;;;17.00;11.40;;;;;;;;;;5073202;28;20472;-64
2022/08/05 07:41:35;;;;;;;14.77;11.47;;;;;;;;;;5073551;28;20527;-64
2022/08/05 07:44:04;;;;;;;19.30;12.47;;;;;;;;;;5073116;28;20451;-64
2022/08/05 07:46:33;;;;;;;13.63;12.07;;;;;;;;;;5073203;28;20478;-67
2022/08/05 07:49:01;;;;;;;22.50;12.20;;;;;;;;;;5073329;28;20436;-64
2022/08/05 07:51:28;;;;;;;15.23;11.40;;;;;;;;;;5073405;28;20563;-64
2022/08/05 07:53:55;;;;;;;13.60;11.43;;;;;;;;;;5073644;28;20449;-64
2022/08/05 07:56:22;;;;;;;12.20;10.90;;;;;;;;;;5073373;28;20535;-65
2022/08/05 07:58:49;;;;;;;12.43;11.07;;;;;;;;;;5073264;28;20790;-64
2022/08/05 08:01:17;;;;;;;10.30;8.70;;;;;;;;;;5073380;28;20531;-65
2022/08/05 08:03:45;;;;;;;13.50;9.57;;;;;;;;;;5073541;28;20774;-64
2022/08/05 08:06:13;;;;;;;15.50;10.30;;;;;;;;;;5073003;28;20527;-64
2022/08/05 08:08:40;;;;;;;14.07;8.90;;;;;;;;;;5072524;28;20448;-65
2022/08/05 08:11:08;;;;;;;10.60;9.00;;;;;;;;;;5073273;28;20443;-64
2022/08/05 08:13:36;;;;;;;11.40;9.03;;;;;;;;;;5073160;28;20536;-64
2022/08/05 08:16:03;;;;;;;10.53;8.13;;;;;;;;;;5073190;28;20894;-64
2022/08/05 08:18:30;;;;;;;11.30;8.87;;;;;;;;;;5072807;28;20466;-65
2022/08/05 08:20:59;;;;;;;11.70;7.87;;;;;;;;;;5073071;28;20520;-65
2022/08/05 08:23:26;;;;;;;10.17;8.17;;;;;;;;;;5072946;28;20452;-64
2022/08/05 08:25:53;;;;;;;13.53;8.60;;;;;;;;;;5073075;28;20524;-64
2022/08/05 08:28:20;;;;;;;9.50;8.60;;;;;;;;;;5072675;28;20480;-65
2022/08/05 08:30:48;;;;;;;8.93;8.00;;;;;;;;;;5072950;28;20449;-64
2022/08/05 08:33:15;;;;;;;14.50;8.40;;;;;;;;;;5072321;28;21009;-65
2022/08/05 08:35:42;;;;;;;13.27;6.87;;;;;;;;;;5073021;28;20531;-64
2022/08/05 08:38:12;;;;;;;11.40;6.63;;;;;;;;;;5072483;28;20540;-65
2022/08/05 08:40:40;;;;;;;8.10;6.97;;;;;;;;;;5072637;28;20484;-66
2022/08/05 08:43:08;;;;;;;9.53;7.90;;;;;;;;;;5072506;28;20941;-64
2022/08/05 08:45:36;;;;;;;9.87;7.97;;;;;;;;;;5073120;28;20438;-64
2022/08/05 08:48:04;;;;;;;9.50;7.30;;;;;;;;;;5075429;28;20865;-64
2022/08/05 08:50:32;;;;;;;9.50;7.53;;;;;;;;;;5076538;28;20441;-64
2022/08/05 08:53:01;;;;;;;9.43;7.10;;;;;;;;;;5076036;28;20487;-65
2022/08/05 08:55:30;;;;;;;13.17;8.20;;;;;;;;;;5076619;28;20551;-64
2022/08/05 08:57:58;;;;;;;9.13;8.13;;;;;;;;;;5076724;28;20441;-64
2022/08/05 09:00:25;;;;;;;11.43;8.83;;;;;;;;;;5076316;28;20445;-64
2022/08/05 09:02:53;;;;;;;11.00;7.30;;;;;;;;;;5075976;28;20454;-63
2022/08/05 09:05:21;;;;;;;8.80;7.90;;;;;;;;;;5076259;28;20446;-64
2022/08/05 09:07:48;;;;;;;7.20;6.40;;;;;;;;;;5075999;28;20524;-65
2022/08/05 09:10:16;;;;;;;8.50;7.07;;;;;;;;;;5075837;28;20534;-65
2022/08/05 09:12:44;;;;;;;7.57;6.50;;;;;;;;;;5075836;28;20803;-65
2022/08/05 09:15:11;;;;;;;9.63;6.80;;;;;;;;;;5075755;28;20502;-64
2022/08/05 09:17:40;;;;;;;7.60;6.80;;;;;;;;;;5076463;28;20552;-64
2022/08/05 09:20:08;;;;;;;9.20;6.73;;;;;;;;;;5076148;28;20437;-65
2022/08/05 09:22:54;;;;;;;7.60;6.80;;;;;;;;;;5075980;28;20492;-64
2022/08/05 09:25:21;;;;;;;9.37;6.40;;;;;;;;;;5075795;28;20523;-65
2022/08/05 09:27:50;;;;;;;6.73;6.13;;;;;;;;;;5076351;28;20480;-64
2022/08/05 09:30:17;;;;;;;7.00;6.27;;;;;;;;;;5075433;28;20478;-65
2022/08/05 09:32:45;;;;;;;6.97;5.80;;;;;;;;;;5075969;28;20469;-64
2022/08/05 09:35:13;;;;;;;7.77;6.00;;;;;;;;;;5075337;28;20472;-64
2022/08/05 09:37:50;;;;;;;10.60;7.00;;;;;;;;;;5075897;28;20469;-64
2022/08/05 09:40:33;;;;;;;8.50;7.13;;;;;;;;;;5075668;28;20508;-64
2022/08/05 09:43:05;;;;;;;7.80;6.60;;;;;;;;;;5075296;28;20448;-64
2022/08/05 09:45:37;;;;;;;9.07;6.37;;;;;;;;;;5075759;28;20485;-64
2022/08/05 09:48:19;;;;;;;12.03;6.03;;;;;;;;;;5075986;28;20437;-64
2022/08/05 09:50:49;;;;;;;8.60;5.37;;;;;;;;;;5075566;28;20511;-64
2022/08/05 09:53:16;;;;;;;7.67;5.20;;;;;;;;;;5075663;28;20965;-64
2022/08/05 09:55:44;;;;;;;5.70;4.97;;;;;;;;;;5074984;28;20488;-64
2022/08/05 09:58:13;;;;;;;9.00;5.20;;;;;;;;;;5074942;28;21014;-64
2022/08/05 10:00:40;;;;;;;5.73;5.23;;;;;;;;;;5075263;28;20520;-64
2022/08/05 10:03:11;;;;;;;10.00;5.60;;;;;;;;;;5075256;28;20455;-64
2022/08/05 10:05:40;;;;;;;5.70;5.00;;;;;;;;;;5075197;28;20532;-64
2022/08/05 10:08:07;;;;;;;8.47;4.70;;;;;;;;;;5074807;28;20433;-64
2022/08/05 10:10:38;;;;;;;8.30;5.27;;;;;;;;;;5074680;28;20914;-64
2022/08/05 10:13:05;;;;;;;6.60;5.43;;;;;;;;;;5074796;28;20563;-65
2022/08/05 10:15:35;;;;;;;9.80;5.40;;;;;;;;;;5075157;28;20439;-64
2022/08/05 10:18:07;;;;;;;6.87;5.07;;;;;;;;;;5074872;28;20490;-64
2022/08/05 10:20:35;;;;;;;8.00;5.03;;;;;;;;;;5074812;28;20449;-64
2022/08/05 10:23:04;;;;;;;9.90;6.40;;;;;;;;;;5074638;28;20794;-64
2022/08/05 10:25:31;;;;;;;6.67;5.10;;;;;;;;;;5074401;28;20544;-64
2022/08/05 10:27:58;;;;;;;5.87;5.37;;;;;;;;;;5074718;28;20445;-64
2022/08/05 10:30:26;;;;;;;6.37;5.17;;;;;;;;;;5074654;28;20444;-65
2022/08/05 10:32:55;;;;;;;5.13;4.73;;;;;;;;;;5074630;28;20495;-64
2022/08/05 10:35:22;;;;;;;8.20;5.30;;;;;;;;;;5074471;28;20440;-64
2022/08/05 10:37:49;;;;;;;7.47;5.13;;;;;;;;;;5074481;28;20478;-64
2022/08/05 10:40:20;;;;;;;7.83;5.50;;;;;;;;;;5074409;28;20524;-64
2022/08/05 10:42:48;;;;;;;9.80;4.77;;;;;;;;;;5074244;28;20498;-65
2022/08/05 10:45:16;;;;;;;8.53;4.77;;;;;;;;;;5074118;28;21021;-64
2022/08/05 10:47:45;;;;;;;8.30;6.07;;;;;;;;;;5073968;28;20933;-64
2022/08/05 10:50:14;;;;;;;6.23;5.00;;;;;;;;;;5074152;28;20450;-65
2022/08/05 10:52:42;;;;;;;5.73;4.53;;;;;;;;;;5073750;28;20977;-64
2022/08/05 10:55:12;;;;;;;8.33;4.60;;;;;;;;;;5074102;28;20468;-65
2022/08/05 10:57:40;;;;;;;3.90;3.60;;;;;;;;;;5074185;28;20451;-64
2022/08/05 11:00:08;;;;;;;5.40;3.53;;;;;;;;;;5073844;28;20944;-65
2022/08/05 11:02:35;;;;;;;6.47;4.47;;;;;;;;;;5074613;28;20881;-64
2022/08/05 11:05:05;;;;;;;5.80;3.90;;;;;;;;;;5073940;28;20438;-65
2022/08/05 11:07:34;;;;;;;4.97;4.47;;;;;;;;;;5073674;28;20536;-65
2022/08/05 11:10:03;;;;;;;6.20;3.63;;;;;;;;;;5074193;28;20797;-65
2022/08/05 11:12:45;;;;;;;3.50;3.03;;;;;;;;;;5073767;28;20566;-65
2022/08/05 11:15:20;;;;;;;4.00;2.10;;;;;;;;;;5071852;28;20451;-65
2022/08/05 11:17:47;;;;;;;3.00;2.47;;;;;;;;;;5073829;28;20954;-64
2022/08/05 11:20:36;;;;;;;3.67;3.10;;;;;;;;;;5073724;28;20447;-65
2022/08/05 11:23:18;;;;;;;4.20;2.27;;;;;;;;;;5073676;28;20987;-65
2022/08/05 11:26:00;;;;;;;3.87;2.27;;;;;;;;;;5073124;28;20486;-64
2022/08/05 11:28:37;;;;;;;2.60;2.40;;;;;;;;;;5073454;28;20522;-64
2022/08/05 11:31:26;;;;;;;3.10;2.40;;;;;;;;;;5073334;28;20478;-67
2022/08/05 11:33:55;;;;;;;4.37;3.00;;;;;;;;;;5073816;28;20518;-65
2022/08/05 11:36:23;;;;;;;2.40;2.20;;;;;;;;;;5073385;28;20810;-65
2022/08/05 11:38:54;;;;;;;6.10;4.23;;;;;;;;;;5073565;28;20531;-64
2022/08/05 11:41:23;;;;;;;2.97;2.60;;;;;;;;;;5073062;28;20933;-65
2022/08/05 11:43:54;;;;;;;4.67;3.13;;;;;;;;;;5073148;28;20451;-63
2022/08/05 11:46:26;;;;;;;3.33;2.87;;;;;;;;;;5073004;28;20922;-64
2022/08/05 11:48:53;;;;;;;5.37;2.63;;;;;;;;;;5073687;28;20429;-64
2022/08/05 11:51:20;;;;;;;3.90;2.50;;;;;;;;;;5073811;28;20921;-64
2022/08/05 11:53:48;;;;;;;4.33;2.67;;;;;;;;;;5073629;28;20550;-64
2022/08/05 11:56:15;;;;;;;4.63;2.90;;;;;;;;;;5073251;28;20881;-64
2022/08/05 11:58:45;;;;;;;3.50;2.73;;;;;;;;;;5072940;28;20443;-64
2022/08/05 12:01:13;;;;;;;3.43;3.13;;;;;;;;;;5072819;28;20443;-64
2022/08/05 12:03:44;;;;;;;3.37;3.03;;;;;;;;;;5072938;28;21024;-64
2022/08/05 12:06:12;;;;;;;4.90;3.07;;;;;;;;;;5072821;28;20472;-64
2022/08/05 12:08:43;;;;;;;4.33;3.10;;;;;;;;;;5072704;28;20523;-64
2022/08/05 12:11:11;;;;;;;3.77;3.40;;;;;;;;;;5073252;28;20527;-65
2022/08/05 12:13:38;;;;;;;3.80;2.93;;;;;;;;;;5072611;28;20973;-65
2022/08/05 12:16:08;;;;;;;3.00;2.80;;;;;;;;;;5072255;28;20478;-65
2022/08/05 12:18:36;;;;;;;4.23;3.60;;;;;;;;;;5072959;28;20444;-65
2022/08/05 12:21:10;;;;;;;3.70;3.40;;;;;;;;;;5073440;28;20870;-65
2022/08/05 12:23:38;;;;;;;3.70;3.50;;;;;;;;;;5076305;28;20864;-65
2022/08/05 12:26:05;;;;;;;5.17;4.40;;;;;;;;;;5076539;28;20447;-66
2022/08/05 12:28:33;;;;;;;5.50;4.37;;;;;;;;;;5076872;28;20527;-64
2022/08/05 12:31:01;;;;;;;5.10;3.97;;;;;;;;;;5076769;28;20515;-64
2022/08/05 12:33:29;;;;;;;4.73;4.23;;;;;;;;;;5076191;28;20472;-64
2022/08/05 12:35:57;;;;;;;4.87;4.47;;;;;;;;;;5076623;28;20448;-64
2022/08/05 12:38:24;;;;;;;10.33;4.40;;;;;;;;;;5076585;28;20853;-64
2022/08/05 12:40:52;;;;;;;6.60;4.90;;;;;;;;;;5076237;28;20946;-64
2022/08/05 12:43:20;;;;;;;5.53;3.90;;;;;;;;;;5076105;28;20454;-64
2022/08/05 12:45:54;;;;;;;4.40;4.10;;;;;;;;;;5076473;28;20439;-64
2022/08/05 12:48:21;;;;;;;5.57;5.10;;;;;;;;;;5076503;28;20443;-64
2022/08/05 12:51:07;;;;;;;5.40;4.90;;;;;;;;;;5076042;28;20447;-64
2022/08/05 12:53:41;;;;;;;4.90;4.50;;;;;;;;;;5076100;28;20512;-64
2022/08/05 12:56:16;;;;;;;4.87;4.57;;;;;;;;;;5076127;28;20913;-64
2022/08/05 12:58:43;;;;;;;5.47;4.97;;;;;;;;;;5076413;28;20867;-64
2022/08/05 13:01:10;;;;;;;5.57;5.17;;;;;;;;;;5076376;28;20529;-66
2022/08/05 13:03:39;;;;;;;7.80;5.30;;;;;;;;;;5076214;28;20878;-76
2022/08/05 13:06:07;;;;;;;8.00;4.77;;;;;;;;;;5076374;28;20779;-64
2022/08/05 13:08:38;;;;;;;7.50;4.90;;;;;;;;;;5075839;28;20441;-63
2022/08/05 13:11:06;;;;;;;6.97;4.60;;;;;;;;;;5076201;28;20519;-64
2022/08/05 13:13:33;;;;;;;6.57;5.33;;;;;;;;;;5075566;28;20527;-63
2022/08/05 13:16:01;;;;;;;5.20;4.23;;;;;;;;;;5075715;28;20535;-63
2022/08/05 13:18:38;;;;;;;8.33;5.70;;;;;;;;;;5076210;28;20433;-64
2022/08/05 13:21:05;;;;;;;8.67;5.17;;;;;;;;;;5076655;28;20429;-64
2022/08/05 13:23:32;;;;;;;7.77;5.30;;;;;;;;;;5076088;28;20875;-63
2022/08/05 13:26:02;;;;;;;5.50;5.00;;;;;;;;;;5075897;28;20536;-64
2022/08/05 13:28:29;;;;;;;6.53;4.27;;;;;;;;;;5075527;28;20437;-63
2022/08/05 13:30:56;;;;;;;4.80;4.30;;;;;;;;;;5091774;28;20514;-64
2022/08/05 13:33:23;;;;;;;7.30;3.70;;;;;;;;;;5094809;28;20475;-64
2022/08/05 13:35:51;;;;;;;5.23;2.83;;;;;;;;;;5094823;28;20778;-64
2022/08/05 13:38:18;;;;;;;4.00;2.93;;;;;;;;;;5095009;28;20477;-64
2022/08/05 13:40:45;;;;;;;3.20;2.50;;;;;;;;;;5095087;28;20486;-63
2022/08/05 13:43:14;;;;;;;4.07;2.90;;;;;;;;;;5095464;28;20523;-63
2022/08/05 13:45:41;;;;;;;2.80;2.40;;;;;;;;;;5095438;28;20446;-63
2022/08/05 13:48:08;;;;;;;4.70;2.47;;;;;;;;;;5094980;28;20438;-64
2022/08/05 13:50:36;;;;;;;2.17;2.07;;;;;;;;;;5095292;28;20463;-64
2022/08/05 13:53:03;;;;;;;3.67;2.33;;;;;;;;;;5094795;28;20484;-63
2022/08/05 13:55:30;;;;;;;3.20;2.33;;;;;;;;;;5095572;28;20458;-63
2022/08/05 13:57:57;;;;;;;3.07;2.77;;;;;;;;;;5095689;28;20530;-63
2022/08/05 14:00:26;;;;;;;2.37;1.70;;;;;;;;;;5094605;28;20534;-63
2022/08/05 14:02:53;;;;;;;2.50;1.50;;;;;;;;;;5094674;28;20440;-64
2022/08/05 14:05:20;;;;;;;1.63;1.30;;;;;;;;;;5094986;28;20526;-64
2022/08/05 14:07:47;;;;;;;1.77;1.30;;;;;;;;;;5094692;28;20524;-65
2022/08/05 14:10:16;;;;;;;1.20;1.10;;;;;;;;;;5095231;28;20867;-64
2022/08/05 14:12:43;;;;;;;1.50;1.40;;;;;;;;;;5094746;28;21005;-64
2022/08/05 14:15:11;;;;;;;2.70;1.80;;;;;;;;;;5094971;28;20582;-63
2022/08/05 14:17:40;;;;;;;2.17;1.30;;;;;;;;;;5094515;28;20835;-65
2022/08/05 14:20:07;;;;;;;3.53;1.73;;;;;;;;;;5095225;28;20444;-64
2022/08/05 14:22:35;;;;;;;5.83;1.30;;;;;;;;;;5095162;28;20524;-65
2022/08/05 14:25:02;;;;;;;4.97;1.63;;;;;;;;;;5094568;28;20540;-64
2022/08/05 14:27:29;;;;;;;2.00;1.40;;;;;;;;;;5094592;28;20791;-63
2022/08/05 14:29:56;;;;;;;2.30;1.60;;;;;;;;;;5094544;28;20450;-64
2022/08/05 14:32:24;;;;;;;2.10;1.33;;;;;;;;;;5094308;28;20528;-64
2022/08/05 14:34:53;;;;;;;1.30;1.10;;;;;;;;;;5094530;28;20830;-64
2022/08/05 14:37:20;;;;;;;2.57;1.37;;;;;;;;;;5094317;28;20920;-64
2022/08/05 14:39:47;;;;;;;1.40;1.30;;;;;;;;;;5093985;28;20442;-64
2022/08/05 14:42:15;;;;;;;6.00;1.53;;;;;;;;;;5094526;28;20607;-63
2022/08/05 14:44:44;;;;;;;1.90;1.50;;;;;;;;;;5093686;28;20480;-64